Time;durP1;ratioP1;P1;durP2;ratioP2;P2;SDS_P1;SDS_P2;PMS_P1;PMS_P2;Temp;Humidity;BMP_temperature;BMP_pressure;BME280_temperature;BME280_humidity;BME280_pressure;Samples;Min_cycle;Max_cycle;Signal;HPM_P1;HPM_P2
2023/05/17 02:46:12;;;;;;;;;;;;;;;11.80;100.00;98969.30;106936;1313;557345;-45
2023/05/17 02:48:37;;;;;;;;;;;;;;;11.69;100.00;98972.28;107337;1313;22481;-41
2023/05/17 02:51:02;;;;;;;;;;;;;;;11.65;100.00;98972.05;107313;1313;23842;-48
2023/05/17 02:53:28;;;;;;;;;;;;;;;11.55;100.00;98976.92;107305;1313;22496;-44
2023/05/17 02:55:56;;;;;;;;;;;;;;;11.53;100.00;98981.92;107294;1313;23138;-44
2023/05/17 02:58:22;;;;;;;;;;;;;;;11.49;100.00;98982.72;107394;1308;139924;-43
2023/05/17 03:00:47;;;;;;;;;;;;;;;11.42;100.00;98983.86;107751;1308;22551;-47
2023/05/17 03:03:12;;;;;;;;;;;;;;;11.39;100.00;98988.30;107729;1308;22503;-46
2023/05/17 03:05:38;;;;;;;;;;;;;;;11.37;100.00;98990.48;107687;1309;22529;-47
2023/05/17 03:08:03;;;;;;;;;;;;;;;11.13;100.00;98992.52;107682;1309;22483;-42
2023/05/17 03:10:28;;;;;;;;;;;;;;;11.13;100.00;98993.73;107669;1309;22603;-44
2023/05/17 03:12:53;;;;;;;;;;;;;;;11.04;100.00;98996.40;107682;1309;22488;-44
2023/05/17 03:15:18;;;;;;;;;;;;;;;11.00;100.00;98993.52;107669;1306;24467;-40
2023/05/17 03:17:44;;;;;;;;;;;;;;;10.96;100.00;98995.69;107680;1309;22516;-43
2023/05/17 03:20:09;;;;;;;;;;;;;;;10.95;100.00;98996.27;107674;1309;22527;-46
2023/05/17 03:22:35;;;;;;;;;;;;;;;10.90;100.00;98999.73;107750;1308;22483;-44
2023/05/17 03:25:00;;;;;;;;;;;;;;;10.91;100.00;98999.52;107741;1308;23103;-44
2023/05/17 03:27:25;;;;;;;;;;;;;;;10.88;100.00;99002.18;107748;1308;22485;-44
2023/05/17 03:29:50;;;;;;;;;;;;;;;10.90;100.00;99002.19;107770;1308;22540;-44
2023/05/17 03:32:15;;;;;;;;;;;;;;;10.87;100.00;99003.09;107747;1291;23134;-44
2023/05/17 03:34:40;;;;;;;;;;;;;;;10.87;100.00;99003.95;107745;1308;22519;-43
2023/05/17 03:37:06;;;;;;;;;;;;;;;10.87;100.00;99009.94;107318;1308;22565;-44
2023/05/17 03:39:31;;;;;;;;;;;;;;;10.89;100.00;99011.76;107750;1308;22495;-46
2023/05/17 03:41:56;;;;;;;;;;;;;;;10.91;100.00;99012.48;107722;1308;22638;-45
2023/05/17 03:44:21;;;;;;;;;;;;;;;10.89;100.00;99018.02;107760;1309;23288;-42
2023/05/17 03:46:46;;;;;;;;;;;;;;;10.88;100.00;99017.21;107761;1309;23060;-45
2023/05/17 03:49:12;;;;;;;;;;;;;;;10.89;100.00;99021.77;107724;1309;23071;-46
2023/05/17 03:51:37;;;;;;;;;;;;;;;10.83;100.00;99013.66;107770;1309;23358;-42
2023/05/17 03:54:02;;;;;;;;;;;;;;;10.82;100.00;99011.84;107731;1309;22483;-44
2023/05/17 03:56:27;;;;;;;;;;;;;;;10.88;100.00;99017.59;107763;1309;22498;-47
2023/05/17 03:58:53;;;;;;;;;;;;;;;10.82;100.00;99019.33;107710;1309;22457;-46
2023/05/17 04:01:19;;;;;;;;;;;;;;;10.85;100.00;99022.14;107740;1309;22951;-47
2023/05/17 04:03:44;;;;;;;;;;;;;;;10.85;100.00;99022.67;107715;1309;22517;-48
2023/05/17 04:06:09;;;;;;;;;;;;;;;10.81;100.00;99021.35;107715;1307;22460;-43
2023/05/17 04:08:35;;;;;;;;;;;;;;;10.77;100.00;99024.75;107733;1309;23267;-45
2023/05/17 04:11:08;;;;;;;;;;;;;;;10.68;100.00;99036.67;107712;1309;23529;-44
2023/05/17 04:13:34;;;;;;;;;;;;;;;10.71;100.00;99042.80;107732;1309;22511;-47
2023/05/17 04:15:59;;;;;;;;;;;;;;;10.77;100.00;99046.30;107733;1309;22474;-45
2023/05/17 04:18:24;;;;;;;;;;;;;;;10.69;100.00;99048.85;107724;1309;22506;-44
2023/05/17 04:20:50;;;;;;;;;;;;;;;10.69;100.00;99048.34;107702;1309;23238;-47
2023/05/17 04:23:15;;;;;;;;;;;;;;;10.70;100.00;99050.91;107739;1309;22502;-46
2023/05/17 04:25:41;;;;;;;;;;;;;;;10.77;100.00;99059.11;107721;1309;22481;-46
2023/05/17 04:28:06;;;;;;;;;;;;;;;10.72;100.00;99057.08;107722;1309;22482;-42
2023/05/17 04:30:31;;;;;;;;;;;;;;;10.73;100.00;99058.78;107740;1309;22545;-46
2023/05/17 04:32:57;;;;;;;;;;;;;;;10.75;100.00;99062.38;107704;1309;22541;-48
2023/05/17 04:35:22;;;;;;;;;;;;;;;10.71;100.00;99067.17;107710;1309;22547;-45
2023/05/17 04:37:47;;;;;;;;;;;;;;;10.73;100.00;99071.61;107719;1309;22510;-45
2023/05/17 04:40:13;;;;;;;;;;;;;;;10.74;100.00;99069.80;107737;1309;22513;-46
2023/05/17 04:42:38;;;;;;;;;;;;;;;10.72;100.00;99063.79;107718;1309;22490;-44
2023/05/17 04:45:04;;;;;;;;;;;;;;;10.73;100.00;99064.06;107528;1309;22544;-44
2023/05/17 04:47:29;;;;;;;;;;;;;;;10.63;100.00;99059.58;107623;1309;22696;-43
2023/05/17 04:49:55;;;;;;;;;;;;;;;10.65;100.00;99058.05;107735;1308;22480;-43
2023/05/17 04:52:20;;;;;;;;;;;;;;;10.60;100.00;99058.54;107732;1308;23281;-47
2023/05/17 04:54:45;;;;;;;;;;;;;;;10.47;100.00;99052.45;107763;1308;22506;-48
2023/05/17 04:57:10;;;;;;;;;;;;;;;10.47;100.00;99047.72;107765;1308;22479;-47
2023/05/17 04:59:35;;;;;;;;;;;;;;;10.42;100.00;99043.83;107742;1308;22503;-43
2023/05/17 05:02:00;;;;;;;;;;;;;;;10.43;100.00;99045.13;107744;1308;22465;-45
2023/05/17 05:04:26;;;;;;;;;;;;;;;10.46;100.00;99043.23;107760;1308;23342;-44
2023/05/17 05:06:51;;;;;;;;;;;;;;;10.43;100.00;99045.17;107741;1308;22464;-43
2023/05/17 05:09:16;;;;;;;;;;;;;;;10.42;100.00;99045.05;107744;1308;22620;-44
2023/05/17 05:11:41;;;;;;;;;;;;;;;10.46;100.00;99050.77;107729;1308;22524;-41
2023/05/17 05:14:07;;;;;;;;;;;;;;;10.49;100.00;99055.65;107732;1308;22490;-43
2023/05/17 05:16:32;;;;;;;;;;;;;;;10.46;100.00;99057.25;107758;1308;22586;-47
2023/05/17 05:18:57;;;;;;;;;;;;;;;10.43;100.00;99060.38;107738;1308;22529;-43
